createdAt,value
2017-10-27T00:00:50.773Z,0.00
2017-10-27T00:01:50.777Z,0.00
2017-10-27T00:02:50.804Z,0.00
2017-10-27T00:03:50.816Z,0.00
2017-10-27T00:04:50.836Z,0.00
2017-10-27T00:05:50.854Z,0.00
2017-10-27T00:06:50.876Z,0.00
2017-10-27T00:07:50.901Z,0.00
2017-10-27T00:08:50.914Z,0.00
2017-10-27T00:09:50.936Z,0.00
2017-10-27T00:10:50.952Z,0.00
2017-10-27T00:11:50.973Z,0.00
2017-10-27T00:12:50.992Z,0.00
2017-10-27T00:13:51.023Z,0.00
2017-10-27T00:14:51.030Z,0.00
2017-10-27T00:15:51.050Z,0.00
2017-10-27T00:16:51.071Z,0.00
2017-10-27T00:17:51.089Z,0.00
2017-10-27T00:18:51.113Z,0.00
2017-10-27T00:19:51.131Z,0.00
2017-10-27T00:20:51.143Z,0.00
2017-10-27T00:21:51.169Z,0.00
2017-10-27T00:22:51.184Z,0.00
2017-10-27T00:23:51.207Z,0.00
2017-10-27T00:24:51.223Z,0.00
2017-10-27T00:25:51.243Z,0.00
2017-10-27T00:26:51.263Z,0.00
2017-10-27T00:27:51.289Z,0.00
2017-10-27T00:28:51.301Z,0.00
2017-10-27T00:29:51.322Z,0.00
2017-10-27T00:30:51.341Z,0.00
2017-10-27T00:31:51.360Z,0.00
2017-10-27T00:32:51.378Z,0.00
2017-10-27T00:33:51.396Z,0.00
2017-10-27T00:34:51.414Z,0.00
2017-10-27T00:35:51.436Z,0.00
2017-10-27T00:36:51.454Z,0.00
2017-10-27T00:37:51.486Z,0.00
2017-10-27T00:38:51.493Z,0.00
2017-10-27T00:39:51.514Z,0.00
2017-10-27T00:40:51.535Z,0.00
2017-10-27T00:41:51.554Z,0.00
2017-10-27T00:42:51.570Z,0.00
2017-10-27T00:43:51.592Z,0.00
2017-10-27T00:44:51.608Z,0.00
2017-10-27T00:45:51.627Z,0.00
2017-10-27T00:46:51.646Z,0.00
2017-10-27T00:47:51.670Z,0.00
2017-10-27T00:48:51.688Z,0.00
2017-10-27T00:49:51.704Z,0.00
2017-10-27T00:50:51.724Z,0.00
2017-10-27T00:51:51.748Z,0.00
2017-10-27T00:52:51.762Z,0.00
2017-10-27T00:53:51.781Z,0.00
2017-10-27T00:54:51.803Z,0.00
2017-10-27T00:55:51.820Z,0.00
2017-10-27T00:56:51.841Z,0.00
2017-10-27T00:57:51.863Z,0.00
2017-10-27T00:58:51.878Z,0.00
2017-10-27T00:59:51.898Z,0.00
2017-10-27T01:00:51.916Z,0.00
2017-10-27T01:01:51.936Z,0.00
2017-10-27T01:02:51.953Z,0.00
2017-10-27T01:03:51.973Z,0.00
2017-10-27T01:04:51.993Z,0.00
2017-10-27T01:05:52.017Z,0.00
2017-10-27T01:06:52.031Z,0.00
2017-10-27T01:07:52.051Z,0.00
2017-10-27T01:08:52.069Z,0.00
2017-10-27T01:09:52.089Z,0.00
2017-10-27T01:10:52.109Z,0.00
2017-10-27T01:11:52.125Z,0.00
2017-10-27T01:12:52.147Z,0.00
2017-10-27T01:13:52.168Z,0.00
2017-10-27T01:14:52.186Z,0.00
2017-10-27T01:15:52.205Z,0.00
2017-10-27T01:16:52.223Z,0.00
2017-10-27T01:17:52.239Z,0.00
2017-10-27T01:18:52.259Z,0.00
2017-10-27T01:19:52.293Z,0.00
2017-10-27T01:20:52.298Z,0.00
2017-10-27T01:21:52.318Z,0.00
2017-10-27T01:22:52.335Z,0.00
2017-10-27T01:23:52.353Z,0.00
2017-10-27T01:24:52.375Z,0.00
2017-10-27T01:25:52.391Z,0.00
2017-10-27T01:26:52.411Z,0.00
2017-10-27T01:27:52.445Z,0.00
2017-10-27T01:28:52.451Z,0.00
2017-10-27T01:29:52.466Z,0.00
2017-10-27T01:30:52.488Z,0.00
2017-10-27T01:31:52.507Z,0.00
2017-10-27T01:32:52.524Z,0.00
2017-10-27T01:33:52.547Z,0.00
2017-10-27T01:34:52.563Z,0.00
2017-10-27T01:35:52.580Z,0.00
2017-10-27T01:36:52.600Z,0.00
2017-10-27T01:37:52.626Z,0.00
2017-10-27T01:38:52.639Z,0.00
2017-10-27T01:39:52.656Z,0.00
2017-10-27T01:40:52.675Z,0.00
2017-10-27T01:41:52.693Z,0.00
2017-10-27T01:42:52.716Z,0.00
2017-10-27T01:43:52.733Z,0.00
2017-10-27T01:44:52.752Z,0.00
2017-10-27T01:45:52.768Z,0.00
2017-10-27T01:46:52.790Z,0.00
2017-10-27T01:47:52.806Z,0.00
2017-10-27T01:48:52.825Z,0.00
2017-10-27T01:49:52.843Z,0.00
2017-10-27T01:50:52.865Z,0.00
2017-10-27T01:51:52.884Z,0.00
2017-10-27T01:52:52.902Z,0.00
2017-10-27T01:53:52.918Z,0.00
2017-10-27T01:54:52.941Z,0.00
2017-10-27T01:55:52.958Z,0.00
2017-10-27T01:56:52.978Z,0.00
2017-10-27T01:57:52.995Z,0.00
2017-10-27T01:58:53.014Z,0.00
2017-10-27T01:59:53.032Z,0.00
2017-10-27T02:00:53.051Z,0.00
2017-10-27T02:01:53.072Z,0.00
2017-10-27T02:02:53.111Z,0.00
2017-10-27T02:03:53.110Z,0.00
2017-10-27T02:04:53.129Z,0.00
2017-10-27T02:05:53.147Z,0.00
2017-10-27T02:06:53.166Z,0.00
2017-10-27T02:07:53.187Z,0.00
2017-10-27T02:08:53.205Z,0.00
2017-10-27T02:09:53.224Z,0.00
2017-10-27T02:10:53.241Z,0.00
2017-10-27T02:11:53.264Z,0.00
2017-10-27T02:12:53.282Z,0.00
2017-10-27T02:13:53.297Z,0.00
2017-10-27T02:14:53.318Z,0.00
2017-10-27T02:15:53.337Z,0.00
2017-10-27T02:16:53.357Z,0.00
2017-10-27T02:17:53.374Z,0.00
2017-10-27T02:18:53.394Z,0.00
2017-10-27T02:19:53.411Z,0.00
2017-10-27T02:20:53.430Z,0.00
2017-10-27T02:21:53.450Z,0.00
2017-10-27T02:22:53.468Z,0.00
2017-10-27T02:23:53.486Z,0.00
2017-10-27T02:24:53.505Z,0.00
2017-10-27T02:25:53.533Z,0.00
2017-10-27T02:26:53.543Z,0.00
2017-10-27T02:27:53.562Z,0.00
2017-10-27T02:28:53.583Z,0.00
2017-10-27T02:29:53.600Z,0.00
2017-10-27T02:30:53.617Z,0.00
2017-10-27T02:31:53.637Z,0.00
2017-10-27T02:32:53.657Z,0.00
2017-10-27T02:33:53.676Z,0.00
2017-10-27T02:34:53.695Z,0.00
2017-10-27T02:35:53.712Z,0.00
2017-10-27T02:36:53.733Z,0.00
2017-10-27T02:37:53.751Z,0.00
2017-10-27T02:38:53.772Z,0.00
2017-10-27T02:39:53.791Z,0.00
2017-10-27T02:40:53.806Z,0.00
2017-10-27T02:41:53.832Z,0.00
2017-10-27T02:42:53.845Z,0.00
2017-10-27T02:43:53.863Z,0.00
2017-10-27T02:44:53.881Z,0.00
2017-10-27T02:45:53.901Z,0.00
2017-10-27T02:46:53.934Z,0.00
2017-10-27T02:47:53.940Z,0.00
2017-10-27T02:48:53.958Z,0.00
2017-10-27T02:49:53.976Z,0.00
2017-10-27T02:50:53.996Z,0.00
2017-10-27T02:51:54.014Z,0.00
2017-10-27T02:52:54.035Z,0.00
2017-10-27T02:53:54.055Z,0.00
2017-10-27T02:54:54.077Z,0.00
2017-10-27T02:55:54.090Z,0.00
2017-10-27T02:56:54.110Z,0.00
2017-10-27T02:57:54.128Z,0.00
2017-10-27T02:58:54.148Z,0.00
2017-10-27T02:59:54.168Z,0.00
2017-10-27T03:00:54.182Z,0.00
2017-10-27T03:01:54.203Z,0.00
2017-10-27T03:02:54.221Z,0.00
2017-10-27T03:03:54.241Z,0.00
2017-10-27T03:04:54.260Z,0.00
2017-10-27T03:05:54.279Z,0.00
2017-10-27T03:06:54.300Z,0.00
2017-10-27T03:07:54.314Z,0.00
2017-10-27T03:08:54.334Z,0.00
2017-10-27T03:09:54.352Z,0.00
2017-10-27T03:10:54.375Z,0.00
2017-10-27T03:11:54.390Z,0.00
2017-10-27T03:12:54.411Z,0.00
2017-10-27T03:13:54.428Z,0.00
2017-10-27T03:14:54.453Z,0.00
2017-10-27T03:15:54.468Z,0.00
2017-10-27T03:16:54.485Z,0.00
2017-10-27T03:17:54.501Z,0.00
2017-10-27T03:18:54.523Z,0.00
2017-10-27T03:19:54.540Z,0.00
2017-10-27T03:20:54.560Z,0.00
2017-10-27T03:21:54.577Z,0.00
2017-10-27T03:22:54.593Z,0.00
2017-10-27T03:23:54.617Z,0.00
2017-10-27T03:24:54.634Z,0.00
2017-10-27T03:25:54.652Z,0.00
2017-10-27T03:26:54.675Z,0.00
2017-10-27T03:27:54.690Z,0.00
2017-10-27T03:28:54.709Z,0.00
2017-10-27T03:29:54.728Z,0.00
2017-10-27T03:30:54.747Z,0.00
2017-10-27T03:31:54.765Z,0.00
2017-10-27T03:32:54.781Z,0.00
2017-10-27T03:33:54.800Z,0.00
2017-10-27T03:34:54.822Z,0.00
2017-10-27T03:35:54.838Z,0.00
2017-10-27T03:36:54.857Z,0.00
2017-10-27T03:37:54.876Z,0.00
2017-10-27T03:38:54.897Z,0.00
2017-10-27T03:39:54.913Z,0.00
2017-10-27T03:40:54.929Z,0.00
2017-10-27T03:41:54.949Z,0.00
2017-10-27T03:42:54.970Z,0.00
2017-10-27T03:43:54.991Z,0.00
2017-10-27T03:44:55.007Z,0.00
2017-10-27T03:45:55.024Z,0.00
2017-10-27T03:46:55.041Z,0.00
2017-10-27T03:47:55.064Z,0.00
2017-10-27T03:48:55.082Z,0.00
2017-10-27T03:49:55.099Z,0.00
2017-10-27T03:50:55.119Z,0.00
2017-10-27T03:51:55.137Z,0.00
2017-10-27T03:52:55.157Z,0.00
2017-10-27T03:53:55.174Z,0.00
2017-10-27T03:54:55.192Z,0.00
2017-10-27T03:55:55.210Z,0.00
2017-10-27T03:56:55.230Z,0.00
2017-10-27T03:57:55.251Z,0.00
2017-10-27T03:58:55.268Z,0.00
2017-10-27T03:59:55.285Z,0.00
2017-10-27T04:00:55.304Z,0.00
2017-10-27T04:01:55.323Z,0.00
2017-10-27T04:02:55.343Z,0.00
2017-10-27T04:03:55.364Z,0.00
2017-10-27T04:04:55.380Z,0.00
2017-10-27T04:05:55.397Z,0.00
2017-10-27T04:06:55.417Z,0.00
2017-10-27T04:07:55.435Z,0.00
2017-10-27T04:08:55.456Z,0.00
2017-10-27T04:09:55.476Z,0.00
2017-10-27T04:10:55.492Z,0.00
2017-10-27T04:11:55.510Z,0.00
2017-10-27T04:12:55.530Z,0.00
2017-10-27T04:13:55.544Z,0.00
2017-10-27T04:14:55.567Z,0.00
2017-10-27T04:15:55.600Z,0.00
2017-10-27T04:16:55.601Z,0.00
2017-10-27T04:17:55.620Z,0.00
2017-10-27T04:18:55.642Z,0.00
2017-10-27T04:19:55.659Z,0.00
2017-10-27T04:20:55.678Z,0.00
2017-10-27T04:21:55.694Z,0.00
2017-10-27T04:22:55.717Z,0.00
2017-10-27T04:23:55.735Z,0.00
2017-10-27T04:24:55.755Z,0.00
2017-10-27T04:25:55.770Z,0.00
2017-10-27T04:26:55.789Z,0.00
2017-10-27T04:27:55.806Z,0.00
2017-10-27T04:28:55.828Z,0.00
2017-10-27T04:29:55.849Z,0.00
2017-10-27T04:30:55.863Z,0.00
2017-10-27T04:31:55.884Z,0.00
2017-10-27T04:32:55.900Z,0.00
2017-10-27T04:33:55.923Z,0.00
2017-10-27T04:34:55.940Z,0.00
2017-10-27T04:35:55.956Z,0.00
2017-10-27T04:36:55.976Z,0.00
2017-10-27T04:37:55.992Z,0.00
2017-10-27T04:38:56.014Z,0.00
2017-10-27T04:39:56.033Z,0.00
2017-10-27T04:40:56.079Z,0.00
2017-10-27T04:41:56.070Z,0.00
2017-10-27T04:42:56.089Z,0.00
2017-10-27T04:43:56.105Z,0.00
2017-10-27T04:44:56.123Z,0.00
2017-10-27T04:45:56.140Z,0.00
2017-10-27T04:46:56.162Z,0.00
2017-10-27T04:47:56.180Z,0.00
2017-10-27T04:48:56.197Z,0.00
2017-10-27T04:49:56.215Z,0.00
2017-10-27T04:50:56.236Z,0.00
2017-10-27T04:51:56.252Z,0.00
2017-10-27T04:52:56.272Z,0.00
2017-10-27T04:53:56.288Z,0.00
2017-10-27T04:54:56.307Z,0.00
2017-10-27T04:55:56.329Z,0.00
2017-10-27T04:56:56.344Z,0.00
2017-10-27T04:57:56.363Z,0.00
2017-10-27T04:58:56.381Z,0.00
2017-10-27T04:59:56.402Z,0.00
2017-10-27T05:00:56.417Z,0.00
2017-10-27T05:01:56.440Z,0.00
2017-10-27T05:02:56.455Z,0.00
2017-10-27T05:03:56.475Z,0.00
2017-10-27T05:04:56.495Z,0.00
2017-10-27T05:05:56.570Z,0.00
2017-10-27T05:06:56.529Z,0.00
2017-10-27T05:07:56.547Z,0.00
2017-10-27T05:08:56.566Z,0.00
2017-10-27T05:09:56.585Z,0.00
2017-10-27T05:10:56.615Z,0.00
2017-10-27T05:11:56.623Z,0.00
2017-10-27T05:12:56.641Z,0.00
2017-10-27T05:13:56.661Z,0.00
2017-10-27T05:14:56.675Z,0.00
2017-10-27T05:15:56.693Z,0.00
2017-10-27T05:16:56.715Z,0.00
2017-10-27T05:17:56.732Z,0.00
2017-10-27T05:18:56.751Z,0.00
2017-10-27T05:19:56.770Z,0.00
2017-10-27T05:20:56.789Z,0.00
2017-10-27T05:21:56.804Z,0.00
2017-10-27T05:22:56.823Z,0.00
2017-10-27T05:23:56.841Z,0.00
2017-10-27T05:24:56.859Z,0.00
2017-10-27T05:25:56.878Z,0.00
2017-10-27T05:26:56.909Z,0.00
2017-10-27T05:27:56.916Z,0.00
2017-10-27T05:28:56.938Z,0.00
2017-10-27T05:29:56.952Z,0.00
2017-10-27T05:30:56.971Z,0.00
2017-10-27T05:31:56.988Z,0.00
2017-10-27T05:32:57.010Z,0.00
2017-10-27T05:33:57.027Z,0.00
2017-10-27T05:34:57.045Z,0.00
2017-10-27T05:35:57.067Z,0.00
2017-10-27T05:36:57.081Z,4.00
2017-10-27T05:37:57.096Z,4.00
2017-10-27T05:38:57.116Z,4.00
2017-10-27T05:39:57.137Z,4.00
2017-10-27T05:40:57.155Z,4.00
2017-10-27T05:41:57.172Z,4.00
2017-10-27T05:42:57.192Z,4.00
2017-10-27T05:43:57.211Z,8.00
2017-10-27T05:44:57.230Z,4.00
2017-10-27T05:45:57.246Z,8.00
2017-10-27T05:46:57.267Z,8.00
2017-10-27T05:47:57.284Z,8.00
2017-10-27T05:48:57.304Z,12.00
2017-10-27T05:49:57.322Z,8.00
2017-10-27T05:50:57.339Z,12.00
2017-10-27T05:51:57.360Z,16.00
2017-10-27T05:52:57.375Z,20.00
2017-10-27T05:53:57.396Z,28.00
2017-10-27T05:54:57.411Z,32.00
2017-10-27T05:55:57.430Z,40.00
2017-10-27T05:56:57.450Z,44.00
2017-10-27T05:57:57.466Z,48.00
2017-10-27T05:58:57.488Z,48.00
2017-10-27T05:59:57.503Z,56.00
2017-10-27T06:00:57.524Z,68.00
2017-10-27T06:01:57.542Z,64.00
2017-10-27T06:02:57.559Z,68.00
2017-10-27T06:03:57.592Z,72.00
2017-10-27T06:04:57.601Z,76.00
2017-10-27T06:05:57.618Z,116.00
2017-10-27T06:06:57.634Z,132.00
2017-10-27T06:07:57.653Z,112.00
2017-10-27T06:08:57.672Z,136.00
2017-10-27T06:09:57.687Z,160.00
2017-10-27T06:10:57.708Z,172.00
2017-10-27T06:11:57.726Z,216.00
2017-10-27T06:12:57.746Z,264.00
2017-10-27T06:13:57.764Z,284.00
2017-10-27T06:14:57.789Z,296.00
2017-10-27T06:15:57.800Z,308.00
2017-10-27T06:16:57.817Z,344.00
2017-10-27T06:17:57.833Z,328.00
2017-10-27T06:18:57.855Z,292.00
2017-10-27T06:19:57.870Z,312.00
2017-10-27T06:20:57.891Z,340.00
2017-10-27T06:21:57.910Z,412.00
2017-10-27T06:22:57.941Z,472.00
2017-10-27T06:23:57.948Z,544.00
2017-10-27T06:24:57.963Z,608.00
2017-10-27T06:25:57.981Z,680.00
2017-10-27T06:26:58.000Z,756.00
2017-10-27T06:27:58.019Z,828.00
2017-10-27T06:28:58.036Z,860.00
2017-10-27T06:29:58.055Z,916.00
2017-10-27T06:30:58.075Z,960.00
2017-10-27T06:31:58.111Z,1032.00
2017-10-27T06:32:58.136Z,1036.00
2017-10-27T06:33:58.133Z,1044.00
2017-10-27T06:34:58.145Z,992.00
2017-10-27T06:35:58.178Z,1048.00
2017-10-27T06:36:58.186Z,1136.00
2017-10-27T06:37:58.207Z,1140.00
2017-10-27T06:38:58.221Z,1088.00
2017-10-27T06:39:58.239Z,1104.00
2017-10-27T06:40:58.255Z,1176.00
2017-10-27T06:41:58.282Z,1156.00
2017-10-27T06:42:58.292Z,1016.00
2017-10-27T06:43:58.311Z,876.00
2017-10-27T06:44:58.331Z,852.00
2017-10-27T06:45:58.354Z,960.00
2017-10-27T06:46:58.366Z,1144.00
2017-10-27T06:47:58.384Z,1208.00
2017-10-27T06:48:58.404Z,1160.00
2017-10-27T06:49:58.424Z,1280.00
2017-10-27T06:50:58.441Z,1200.00
2017-10-27T06:51:58.456Z,1096.00
2017-10-27T06:52:58.476Z,1088.00
2017-10-27T06:53:58.492Z,1156.00
2017-10-27T06:54:58.512Z,1424.00
2017-10-27T06:55:58.531Z,1668.00
2017-10-27T06:56:58.550Z,1748.00
2017-10-27T06:57:58.576Z,1724.00
2017-10-27T06:58:58.589Z,1840.00
2017-10-27T06:59:58.603Z,1816.00
2017-10-27T07:00:58.619Z,1696.00
2017-10-27T07:01:58.638Z,1632.00
2017-10-27T07:02:58.656Z,1744.00
2017-10-27T07:03:58.678Z,2068.00
2017-10-27T07:04:58.694Z,2148.00
2017-10-27T07:05:58.711Z,2092.00
2017-10-27T07:06:58.730Z,2344.00
2017-10-27T07:07:58.750Z,2596.00
2017-10-27T07:08:58.772Z,2828.00
2017-10-27T07:09:58.788Z,2812.00
2017-10-27T07:10:58.806Z,3116.00
2017-10-27T07:11:58.819Z,3540.00
2017-10-27T07:12:58.842Z,3992.00
2017-10-27T07:13:58.857Z,3548.00
2017-10-27T07:14:58.880Z,3260.00
2017-10-27T07:15:58.896Z,3504.00
2017-10-27T07:16:58.915Z,2948.00
2017-10-27T07:17:58.931Z,2328.00
2017-10-27T07:18:58.951Z,1864.00
2017-10-27T07:19:58.967Z,1692.00
2017-10-27T07:20:59.000Z,1836.00
2017-10-27T07:21:59.006Z,1832.00
2017-10-27T07:22:59.027Z,1900.00
2017-10-27T07:23:59.040Z,2104.00
2017-10-27T07:24:59.061Z,2452.00
2017-10-27T07:25:59.083Z,2640.00
2017-10-27T07:26:59.101Z,2692.00
2017-10-27T07:27:59.119Z,2556.00
2017-10-27T07:28:59.136Z,3080.00
2017-10-27T07:29:59.153Z,3248.00
2017-10-27T07:30:59.185Z,3316.00
2017-10-27T07:31:59.187Z,3368.00
2017-10-27T07:32:59.211Z,3628.00
2017-10-27T07:33:59.227Z,4280.00
2017-10-27T07:34:59.277Z,4464.00
2017-10-27T07:35:59.263Z,3880.00
2017-10-27T07:36:59.290Z,3708.00
2017-10-27T07:37:59.300Z,3956.00
2017-10-27T07:38:59.319Z,4044.00
2017-10-27T07:39:59.337Z,2604.00
2017-10-27T07:40:59.359Z,1768.00
2017-10-27T07:41:59.375Z,1588.00
2017-10-27T07:42:59.397Z,1536.00
2017-10-27T07:43:59.433Z,1680.00
2017-10-27T07:44:59.431Z,2124.00
2017-10-27T07:45:59.453Z,3072.00
2017-10-27T07:46:59.468Z,3888.00
2017-10-27T07:47:59.485Z,4520.00
2017-10-27T07:48:59.505Z,4368.00
2017-10-27T07:49:59.522Z,4468.00
2017-10-27T07:50:59.542Z,5008.00
2017-10-27T07:51:59.559Z,5144.00
2017-10-27T07:52:59.582Z,4756.00
2017-10-27T07:53:59.597Z,4444.00
2017-10-27T07:54:59.621Z,4620.00
2017-10-27T07:55:59.634Z,4116.00
2017-10-27T07:56:59.660Z,4500.00
2017-10-27T07:57:59.672Z,5280.00
2017-10-27T07:58:59.694Z,5464.00
2017-10-27T07:59:59.710Z,5528.00
2017-10-27T08:00:59.731Z,6028.00
2017-10-27T08:01:59.747Z,11368.00
2017-10-27T08:02:59.766Z,9864.00
2017-10-27T08:03:59.786Z,6712.00
2017-10-27T08:04:59.803Z,6312.00
2017-10-27T08:05:59.820Z,6840.00
2017-10-27T08:06:59.840Z,7620.00
2017-10-27T08:07:59.859Z,7020.00
2017-10-27T08:08:59.884Z,7364.00
2017-10-27T08:09:59.895Z,7072.00
2017-10-27T08:10:59.918Z,9156.00
2017-10-27T08:11:59.935Z,9716.00
2017-10-27T08:12:59.954Z,9664.00
2017-10-27T08:13:59.973Z,9768.00
2017-10-27T08:14:59.990Z,10076.00
2017-10-27T08:16:00.012Z,9856.00
2017-10-27T08:17:00.049Z,8772.00
2017-10-27T08:18:00.046Z,7372.00
2017-10-27T08:19:00.067Z,6300.00
2017-10-27T08:20:00.089Z,6180.00
2017-10-27T08:21:00.124Z,7136.00
2017-10-27T08:22:00.122Z,9388.00
2017-10-27T08:23:00.144Z,9308.00
2017-10-27T08:24:00.162Z,8120.00
2017-10-27T08:25:00.183Z,7584.00
2017-10-27T08:26:00.217Z,5828.00
2017-10-27T08:27:00.219Z,7080.00
2017-10-27T08:28:00.238Z,9516.00
2017-10-27T08:29:00.260Z,8976.00
2017-10-27T08:30:00.277Z,8584.00
2017-10-27T08:31:00.297Z,8532.00
2017-10-27T08:32:00.314Z,9484.00
2017-10-27T08:33:00.337Z,7960.00
2017-10-27T08:34:00.357Z,6788.00
2017-10-27T08:35:00.374Z,5400.00
2017-10-27T08:36:00.520Z,5368.00
2017-10-27T08:37:00.417Z,5816.00
2017-10-27T08:38:00.432Z,6420.00
2017-10-27T08:39:00.454Z,8168.00
2017-10-27T08:40:00.469Z,10296.00
2017-10-27T08:41:00.522Z,9788.00
2017-10-27T08:42:00.507Z,7604.00
2017-10-27T08:43:00.529Z,6976.00
2017-10-27T08:44:00.548Z,7420.00
2017-10-27T08:45:00.567Z,7288.00
2017-10-27T08:46:00.587Z,6904.00
2017-10-27T08:47:00.607Z,6616.00
2017-10-27T08:48:00.623Z,6116.00
2017-10-27T08:49:00.649Z,6248.00
2017-10-27T08:50:00.723Z,7360.00
2017-10-27T08:51:00.682Z,7392.00
2017-10-27T08:52:00.701Z,8452.00
2017-10-27T08:53:00.721Z,8868.00
2017-10-27T08:54:00.747Z,8652.00
2017-10-27T08:55:00.759Z,9160.00
2017-10-27T08:56:00.777Z,7520.00
2017-10-27T08:57:00.796Z,6508.00
2017-10-27T08:58:00.817Z,7016.00
2017-10-27T08:59:00.837Z,7896.00
2017-10-27T09:00:00.857Z,9604.00
2017-10-27T09:01:00.877Z,10332.00
2017-10-27T09:02:00.895Z,9616.00
2017-10-27T09:03:00.916Z,8680.00
2017-10-27T09:04:00.931Z,8468.00
2017-10-27T09:05:00.955Z,7508.00
2017-10-27T09:06:00.969Z,7888.00
2017-10-27T09:07:00.991Z,8900.00
2017-10-27T09:08:01.011Z,9132.00
2017-10-27T09:09:01.032Z,8488.00
2017-10-27T09:10:01.049Z,7496.00
2017-10-27T09:11:01.069Z,7956.00
2017-10-27T09:12:01.099Z,9852.00
2017-10-27T09:13:01.116Z,8640.00
2017-10-27T09:14:01.130Z,9072.00
2017-10-27T09:15:01.148Z,9760.00
2017-10-27T09:16:01.168Z,9328.00
2017-10-27T09:17:01.187Z,9828.00
2017-10-27T09:18:01.206Z,9320.00
2017-10-27T09:19:01.228Z,8424.00
2017-10-27T09:20:01.253Z,7532.00
2017-10-27T09:21:01.266Z,6516.00
2017-10-27T09:22:01.286Z,6968.00
2017-10-27T09:23:01.302Z,8640.00
2017-10-27T09:24:01.322Z,8436.00
2017-10-27T09:25:01.344Z,9412.00
2017-10-27T09:26:01.366Z,11012.00
2017-10-27T09:27:01.386Z,9864.00
2017-10-27T09:28:01.403Z,8984.00
2017-10-27T09:29:01.422Z,9600.00
2017-10-27T09:30:01.439Z,9236.00
2017-10-27T09:31:01.466Z,9448.00
2017-10-27T09:32:01.480Z,9476.00
2017-10-27T09:33:01.503Z,9576.00
2017-10-27T09:34:01.523Z,11052.00
2017-10-27T09:35:01.540Z,11616.00
2017-10-27T09:36:01.561Z,8708.00
2017-10-27T09:37:01.581Z,7660.00
2017-10-27T09:38:01.598Z,8260.00
2017-10-27T09:39:01.625Z,8504.00
2017-10-27T09:40:01.640Z,7904.00
2017-10-27T09:41:01.658Z,7456.00
2017-10-27T09:42:01.680Z,8388.00
2017-10-27T09:43:01.698Z,8676.00
2017-10-27T09:44:01.719Z,8352.00
2017-10-27T09:45:01.740Z,8252.00
2017-10-27T09:46:01.770Z,8652.00
2017-10-27T09:47:01.782Z,7872.00
2017-10-27T09:48:01.800Z,6508.00
2017-10-27T09:49:01.817Z,6304.00
2017-10-27T09:50:01.840Z,6480.00
2017-10-27T09:51:01.878Z,6928.00
2017-10-27T09:52:01.876Z,6568.00
2017-10-27T09:53:01.902Z,7132.00
2017-10-27T09:54:01.915Z,8764.00
2017-10-27T09:55:01.944Z,8548.00
2017-10-27T09:56:01.955Z,8508.00
2017-10-27T09:57:01.979Z,9052.00
2017-10-27T09:58:01.996Z,8744.00
2017-10-27T09:59:02.016Z,9412.00
2017-10-27T10:00:02.036Z,9684.00
2017-10-27T10:01:02.055Z,9044.00
2017-10-27T10:02:02.081Z,9396.00
2017-10-27T10:03:02.101Z,10060.00
2017-10-27T10:04:02.113Z,9664.00
2017-10-27T10:05:02.131Z,7956.00
2017-10-27T10:06:02.187Z,9332.00
2017-10-27T10:07:02.178Z,9776.00
2017-10-27T10:08:02.192Z,8572.00
2017-10-27T10:09:02.212Z,8784.00
2017-10-27T10:10:02.229Z,8148.00
2017-10-27T10:11:02.254Z,7068.00
2017-10-27T10:12:02.272Z,6844.00
2017-10-27T10:13:02.290Z,6844.00
2017-10-27T10:14:02.307Z,6900.00
2017-10-27T10:15:02.333Z,6956.00
2017-10-27T10:16:02.353Z,6888.00
2017-10-27T10:17:02.371Z,6956.00
2017-10-27T10:18:02.389Z,6872.00
2017-10-27T10:19:02.413Z,7500.00
2017-10-27T10:20:02.427Z,8896.00
2017-10-27T10:21:02.446Z,9336.00
2017-10-27T10:22:02.467Z,8416.00
2017-10-27T10:23:02.490Z,8304.00
2017-10-27T10:24:02.507Z,8424.00
2017-10-27T10:25:02.528Z,8952.00
2017-10-27T10:26:02.549Z,9760.00
2017-10-27T10:27:02.567Z,9396.00
2017-10-27T10:28:02.586Z,8296.00
2017-10-27T10:29:02.606Z,8100.00
2017-10-27T10:30:02.623Z,7524.00
2017-10-27T10:31:02.645Z,5548.00
2017-10-27T10:32:02.663Z,4488.00
2017-10-27T10:33:02.685Z,4948.00
2017-10-27T10:34:02.702Z,5952.00
2017-10-27T10:35:02.723Z,5852.00
2017-10-27T10:36:02.741Z,5176.00
2017-10-27T10:37:02.763Z,5360.00
2017-10-27T10:38:02.781Z,6056.00
2017-10-27T10:39:02.801Z,6864.00
2017-10-27T10:40:02.824Z,7736.00
2017-10-27T10:41:02.843Z,7644.00
2017-10-27T10:42:02.859Z,7696.00
2017-10-27T10:43:02.879Z,8236.00
2017-10-27T10:44:02.902Z,8288.00
2017-10-27T10:45:02.921Z,7252.00
2017-10-27T10:46:02.940Z,6468.00
2017-10-27T10:47:02.959Z,5888.00
2017-10-27T10:48:02.980Z,5388.00
2017-10-27T10:49:03.001Z,5516.00
2017-10-27T10:50:03.019Z,5496.00
2017-10-27T10:51:03.037Z,5232.00
2017-10-27T10:52:03.058Z,5280.00
2017-10-27T10:53:03.076Z,6176.00
2017-10-27T10:54:03.095Z,7056.00
2017-10-27T10:55:03.115Z,8364.00
2017-10-27T10:56:03.134Z,9532.00
2017-10-27T10:57:03.155Z,9144.00
2017-10-27T10:58:03.182Z,8164.00
2017-10-27T10:59:03.193Z,8192.00
2017-10-27T11:00:03.214Z,8444.00
2017-10-27T11:01:03.233Z,8540.00
2017-10-27T11:02:03.252Z,8488.00
2017-10-27T11:03:03.270Z,8972.00
2017-10-27T11:04:03.298Z,8944.00
2017-10-27T11:05:03.313Z,8264.00
2017-10-27T11:06:03.329Z,7776.00
2017-10-27T11:07:03.351Z,7912.00
2017-10-27T11:08:03.369Z,7400.00
2017-10-27T11:09:03.389Z,6792.00
2017-10-27T11:10:03.413Z,6856.00
2017-10-27T11:11:03.429Z,7444.00
2017-10-27T11:12:03.452Z,7768.00
2017-10-27T11:13:03.468Z,7324.00
2017-10-27T11:14:03.487Z,7024.00
2017-10-27T11:15:03.508Z,6496.00
2017-10-27T11:16:03.526Z,5936.00
2017-10-27T11:17:03.555Z,5720.00
2017-10-27T11:18:03.566Z,5980.00
2017-10-27T11:19:03.588Z,5472.00
2017-10-27T11:20:03.605Z,5064.00
2017-10-27T11:21:03.626Z,4936.00
2017-10-27T11:22:03.646Z,5100.00
2017-10-27T11:23:03.665Z,5392.00
2017-10-27T11:24:03.690Z,5764.00
2017-10-27T11:25:03.707Z,7232.00
2017-10-27T11:26:03.723Z,8392.00
2017-10-27T11:27:03.746Z,8588.00
2017-10-27T11:28:03.762Z,8808.00
2017-10-27T11:29:03.783Z,10344.00
2017-10-27T11:30:03.803Z,11436.00
2017-10-27T11:31:03.826Z,13084.00
2017-10-27T11:32:03.841Z,13504.00
2017-10-27T11:33:03.861Z,12280.00
2017-10-27T11:34:03.890Z,11240.00
2017-10-27T11:35:03.901Z,10464.00
2017-10-27T11:36:03.944Z,8504.00
2017-10-27T11:37:03.938Z,7300.00
2017-10-27T11:38:03.959Z,7032.00
2017-10-27T11:39:03.988Z,6916.00
2017-10-27T11:40:04.006Z,6992.00
2017-10-27T11:41:04.020Z,7096.00
2017-10-27T11:42:04.042Z,8148.00
2017-10-27T11:43:04.061Z,7700.00
2017-10-27T11:44:04.081Z,8684.00
2017-10-27T11:45:04.104Z,8824.00
2017-10-27T11:46:04.120Z,8348.00
2017-10-27T11:47:04.142Z,7892.00
2017-10-27T11:48:04.159Z,7188.00
2017-10-27T11:49:04.184Z,6900.00
2017-10-27T11:50:04.204Z,6976.00
2017-10-27T11:51:04.223Z,7232.00
2017-10-27T11:52:04.241Z,7684.00
2017-10-27T11:53:04.263Z,7788.00
2017-10-27T11:54:04.282Z,6616.00
2017-10-27T11:55:04.300Z,6672.00
2017-10-27T11:56:04.324Z,8292.00
2017-10-27T11:57:04.342Z,8536.00
2017-10-27T11:58:04.365Z,8544.00
2017-10-27T11:59:04.379Z,8808.00
2017-10-27T12:00:04.401Z,7816.00
2017-10-27T12:01:04.424Z,8844.00
2017-10-27T12:02:04.441Z,8752.00
2017-10-27T12:03:04.461Z,7384.00
2017-10-27T12:04:04.481Z,8204.00
2017-10-27T12:05:04.505Z,7752.00
2017-10-27T12:06:04.522Z,9908.00
2017-10-27T12:07:04.544Z,11008.00
2017-10-27T12:08:04.564Z,10912.00
2017-10-27T12:09:04.586Z,9572.00
2017-10-27T12:10:04.603Z,8632.00
2017-10-27T12:11:04.622Z,7228.00
2017-10-27T12:12:04.642Z,5864.00
2017-10-27T12:13:04.672Z,4616.00
2017-10-27T12:14:04.682Z,3836.00
2017-10-27T12:15:04.705Z,3872.00
2017-10-27T12:16:04.725Z,5028.00
2017-10-27T12:17:04.746Z,6624.00
2017-10-27T12:18:04.767Z,8008.00
2017-10-27T12:19:04.784Z,8488.00
2017-10-27T12:20:04.810Z,8156.00
2017-10-27T12:21:04.824Z,7384.00
2017-10-27T12:22:04.844Z,7256.00
2017-10-27T12:23:04.866Z,7268.00
2017-10-27T12:24:04.882Z,7220.00
2017-10-27T12:25:04.904Z,7480.00
2017-10-27T12:26:04.923Z,7792.00
2017-10-27T12:27:04.943Z,8232.00
2017-10-27T12:28:04.964Z,8352.00
2017-10-27T12:29:04.984Z,8492.00
2017-10-27T12:30:05.002Z,8124.00
2017-10-27T12:31:05.024Z,7840.00
2017-10-27T12:32:05.041Z,6852.00
2017-10-27T12:33:05.064Z,6040.00
2017-10-27T12:34:05.082Z,5656.00
2017-10-27T12:35:05.103Z,5212.00
2017-10-27T12:36:05.121Z,4812.00
2017-10-27T12:37:05.143Z,5068.00
2017-10-27T12:38:05.163Z,5212.00
2017-10-27T12:39:05.189Z,4384.00